sensor_id;sensor_type;location;lat;lon;timestamp;P1;durP1;ratioP1;P2;durP2;ratioP2
14797;SDS011;7490;63.708;20.368;2023-10-31T00:02:08;1.50;;;1.40;;
14797;SDS011;7490;63.708;20.368;2023-10-31T00:04:34;1.35;;;1.25;;
14797;SDS011;7490;63.708;20.368;2023-10-31T00:07:00;1.77;;;1.67;;
14797;SDS011;7490;63.708;20.368;2023-10-31T00:09:26;2.13;;;1.60;;
14797;SDS011;7490;63.708;20.368;2023-10-31T00:11:51;1.73;;;1.63;;
14797;SDS011;7490;63.708;20.368;2023-10-31T00:14:17;1.80;;;1.70;;
14797;SDS011;7490;63.708;20.368;2023-10-31T00:16:42;1.77;;;1.67;;
14797;SDS011;7490;63.708;20.368;2023-10-31T00:19:08;1.33;;;1.33;;
14797;SDS011;7490;63.708;20.368;2023-10-31T00:21:34;1.60;;;1.50;;
14797;SDS011;7490;63.708;20.368;2023-10-31T00:23:59;2.00;;;1.47;;
14797;SDS011;7490;63.708;20.368;2023-10-31T00:26:25;1.50;;;1.43;;
14797;SDS011;7490;63.708;20.368;2023-10-31T00:28:50;2.00;;;1.50;;
14797;SDS011;7490;63.708;20.368;2023-10-31T00:31:16;1.70;;;1.60;;
14797;SDS011;7490;63.708;20.368;2023-10-31T00:33:42;1.83;;;1.60;;
14797;SDS011;7490;63.708;20.368;2023-10-31T00:36:07;1.90;;;1.50;;
14797;SDS011;7490;63.708;20.368;2023-10-31T00:38:33;1.10;;;1.10;;
14797;SDS011;7490;63.708;20.368;2023-10-31T00:40:59;1.53;;;1.43;;
14797;SDS011;7490;63.708;20.368;2023-10-31T00:43:25;1.50;;;1.40;;
14797;SDS011;7490;63.708;20.368;2023-10-31T00:45:50;1.47;;;1.37;;
14797;SDS011;7490;63.708;20.368;2023-10-31T00:48:16;1.27;;;1.27;;
14797;SDS011;7490;63.708;20.368;2023-10-31T00:50:43;1.33;;;1.23;;
14797;SDS011;7490;63.708;20.368;2023-10-31T00:53:08;1.75;;;1.40;;
14797;SDS011;7490;63.708;20.368;2023-10-31T00:55:34;1.70;;;1.60;;
14797;SDS011;7490;63.708;20.368;2023-10-31T00:58:00;1.50;;;1.33;;
14797;SDS011;7490;63.708;20.368;2023-10-31T01:00:25;1.20;;;1.10;;
14797;SDS011;7490;63.708;20.368;2023-10-31T01:02:51;1.47;;;1.37;;
14797;SDS011;7490;63.708;20.368;2023-10-31T01:05:17;1.50;;;1.47;;
14797;SDS011;7490;63.708;20.368;2023-10-31T01:07:42;1.53;;;1.43;;
14797;SDS011;7490;63.708;20.368;2023-10-31T01:10:08;1.50;;;1.40;;
14797;SDS011;7490;63.708;20.368;2023-10-31T01:12:34;1.17;;;1.10;;
14797;SDS011;7490;63.708;20.368;2023-10-31T01:15:00;1.70;;;1.60;;
14797;SDS011;7490;63.708;20.368;2023-10-31T01:17:25;1.47;;;1.37;;
14797;SDS011;7490;63.708;20.368;2023-10-31T01:19:51;1.40;;;1.40;;
14797;SDS011;7490;63.708;20.368;2023-10-31T01:22:17;1.63;;;1.53;;
14797;SDS011;7490;63.708;20.368;2023-10-31T01:24:43;1.40;;;1.40;;
14797;SDS011;7490;63.708;20.368;2023-10-31T01:27:08;1.57;;;1.47;;
14797;SDS011;7490;63.708;20.368;2023-10-31T01:29:34;1.30;;;1.30;;
14797;SDS011;7490;63.708;20.368;2023-10-31T01:32:00;1.30;;;1.20;;
14797;SDS011;7490;63.708;20.368;2023-10-31T01:34:25;1.30;;;1.30;;
14797;SDS011;7490;63.708;20.368;2023-10-31T01:36:51;1.63;;;1.40;;
14797;SDS011;7490;63.708;20.368;2023-10-31T01:39:17;1.70;;;1.60;;
14797;SDS011;7490;63.708;20.368;2023-10-31T01:41:43;1.67;;;1.57;;
14797;SDS011;7490;63.708;20.368;2023-10-31T01:44:09;1.30;;;1.20;;
14797;SDS011;7490;63.708;20.368;2023-10-31T01:46:35;1.50;;;1.40;;
14797;SDS011;7490;63.708;20.368;2023-10-31T01:49:01;1.10;;;1.10;;
14797;SDS011;7490;63.708;20.368;2023-10-31T01:51:27;0.90;;;0.90;;
14797;SDS011;7490;63.708;20.368;2023-10-31T01:53:53;1.38;;;1.33;;
14797;SDS011;7490;63.708;20.368;2023-10-31T01:56:20;1.40;;;1.40;;
14797;SDS011;7490;63.708;20.368;2023-10-31T01:58:46;1.60;;;1.50;;
14797;SDS011;7490;63.708;20.368;2023-10-31T02:01:13;1.20;;;1.20;;
14797;SDS011;7490;63.708;20.368;2023-10-31T02:03:39;1.17;;;1.17;;
14797;SDS011;7490;63.708;20.368;2023-10-31T02:06:04;1.77;;;1.67;;
14797;SDS011;7490;63.708;20.368;2023-10-31T02:08:30;1.35;;;1.35;;
14797;SDS011;7490;63.708;20.368;2023-10-31T02:10:56;1.47;;;1.47;;
14797;SDS011;7490;63.708;20.368;2023-10-31T02:13:22;1.57;;;1.47;;
14797;SDS011;7490;63.708;20.368;2023-10-31T02:15:47;1.23;;;1.20;;
14797;SDS011;7490;63.708;20.368;2023-10-31T02:18:13;1.40;;;1.40;;
14797;SDS011;7490;63.708;20.368;2023-10-31T02:20:39;1.25;;;1.20;;
14797;SDS011;7490;63.708;20.368;2023-10-31T02:23:05;1.30;;;1.20;;
14797;SDS011;7490;63.708;20.368;2023-10-31T02:25:31;1.27;;;1.27;;
14797;SDS011;7490;63.708;20.368;2023-10-31T02:27:57;1.30;;;1.30;;
14797;SDS011;7490;63.708;20.368;2023-10-31T02:30:23;1.60;;;1.50;;
14797;SDS011;7490;63.708;20.368;2023-10-31T02:32:49;1.20;;;1.10;;
14797;SDS011;7490;63.708;20.368;2023-10-31T02:35:16;1.60;;;1.50;;
14797;SDS011;7490;63.708;20.368;2023-10-31T02:37:43;1.40;;;1.30;;
14797;SDS011;7490;63.708;20.368;2023-10-31T02:40:11;1.10;;;1.10;;
14797;SDS011;7490;63.708;20.368;2023-10-31T02:42:37;1.67;;;1.57;;
14797;SDS011;7490;63.708;20.368;2023-10-31T02:45:03;1.17;;;1.17;;
14797;SDS011;7490;63.708;20.368;2023-10-31T02:47:29;1.67;;;1.67;;
14797;SDS011;7490;63.708;20.368;2023-10-31T02:49:55;1.23;;;1.23;;
14797;SDS011;7490;63.708;20.368;2023-10-31T02:52:21;1.30;;;1.30;;
14797;SDS011;7490;63.708;20.368;2023-10-31T02:54:46;1.37;;;1.27;;
14797;SDS011;7490;63.708;20.368;2023-10-31T02:57:12;1.37;;;1.17;;
14797;SDS011;7490;63.708;20.368;2023-10-31T02:59:38;1.58;;;1.48;;
14797;SDS011;7490;63.708;20.368;2023-10-31T03:02:03;1.60;;;1.50;;
14797;SDS011;7490;63.708;20.368;2023-10-31T03:04:29;1.20;;;1.20;;
14797;SDS011;7490;63.708;20.368;2023-10-31T03:06:55;1.20;;;1.20;;
14797;SDS011;7490;63.708;20.368;2023-10-31T03:09:20;1.40;;;1.30;;
14797;SDS011;7490;63.708;20.368;2023-10-31T03:11:46;1.27;;;1.27;;
14797;SDS011;7490;63.708;20.368;2023-10-31T03:14:12;1.00;;;1.00;;
14797;SDS011;7490;63.708;20.368;2023-10-31T03:16:37;1.07;;;1.07;;
14797;SDS011;7490;63.708;20.368;2023-10-31T03:19:04;1.50;;;1.50;;
14797;SDS011;7490;63.708;20.368;2023-10-31T03:21:29;1.20;;;1.20;;
14797;SDS011;7490;63.708;20.368;2023-10-31T03:23:55;1.50;;;1.40;;
14797;SDS011;7490;63.708;20.368;2023-10-31T03:26:22;1.17;;;1.17;;
14797;SDS011;7490;63.708;20.368;2023-10-31T03:28:48;1.50;;;1.40;;
14797;SDS011;7490;63.708;20.368;2023-10-31T03:31:14;1.67;;;1.53;;
14797;SDS011;7490;63.708;20.368;2023-10-31T03:33:40;1.00;;;1.00;;
14797;SDS011;7490;63.708;20.368;2023-10-31T03:36:07;1.40;;;1.40;;
14797;SDS011;7490;63.708;20.368;2023-10-31T03:38:33;0.90;;;0.90;;
14797;SDS011;7490;63.708;20.368;2023-10-31T03:40:59;1.20;;;1.20;;
14797;SDS011;7490;63.708;20.368;2023-10-31T03:43:25;1.15;;;1.15;;
14797;SDS011;7490;63.708;20.368;2023-10-31T03:45:51;0.97;;;0.97;;
14797;SDS011;7490;63.708;20.368;2023-10-31T03:48:17;1.30;;;1.30;;
14797;SDS011;7490;63.708;20.368;2023-10-31T03:50:43;1.20;;;1.10;;
14797;SDS011;7490;63.708;20.368;2023-10-31T03:53:09;0.83;;;0.83;;
14797;SDS011;7490;63.708;20.368;2023-10-31T03:55:35;1.47;;;1.37;;
14797;SDS011;7490;63.708;20.368;2023-10-31T03:58:00;1.60;;;0.90;;
14797;SDS011;7490;63.708;20.368;2023-10-31T04:00:26;1.00;;;1.00;;
14797;SDS011;7490;63.708;20.368;2023-10-31T04:02:52;1.10;;;1.10;;
14797;SDS011;7490;63.708;20.368;2023-10-31T04:05:19;1.10;;;1.10;;
14797;SDS011;7490;63.708;20.368;2023-10-31T04:07:46;1.10;;;1.10;;
14797;SDS011;7490;63.708;20.368;2023-10-31T04:10:12;1.15;;;1.15;;
14797;SDS011;7490;63.708;20.368;2023-10-31T04:12:38;0.90;;;0.90;;
14797;SDS011;7490;63.708;20.368;2023-10-31T04:15:04;1.43;;;1.37;;
14797;SDS011;7490;63.708;20.368;2023-10-31T04:17:29;1.15;;;1.15;;
14797;SDS011;7490;63.708;20.368;2023-10-31T04:19:55;1.20;;;1.20;;
14797;SDS011;7490;63.708;20.368;2023-10-31T04:22:21;2.00;;;1.10;;
14797;SDS011;7490;63.708;20.368;2023-10-31T04:24:47;0.90;;;0.90;;
14797;SDS011;7490;63.708;20.368;2023-10-31T04:27:14;0.90;;;0.90;;
14797;SDS011;7490;63.708;20.368;2023-10-31T04:29:40;1.03;;;1.03;;
14797;SDS011;7490;63.708;20.368;2023-10-31T04:32:06;1.07;;;1.03;;
14797;SDS011;7490;63.708;20.368;2023-10-31T04:34:31;0.80;;;0.80;;
14797;SDS011;7490;63.708;20.368;2023-10-31T04:36:57;0.70;;;0.70;;
14797;SDS011;7490;63.708;20.368;2023-10-31T04:39:23;0.90;;;0.90;;
14797;SDS011;7490;63.708;20.368;2023-10-31T04:41:49;1.02;;;0.80;;
14797;SDS011;7490;63.708;20.368;2023-10-31T04:44:14;1.30;;;1.20;;
14797;SDS011;7490;63.708;20.368;2023-10-31T04:46:41;1.30;;;1.20;;
14797;SDS011;7490;63.708;20.368;2023-10-31T04:49:07;1.00;;;1.00;;
14797;SDS011;7490;63.708;20.368;2023-10-31T04:51:33;1.00;;;0.80;;
14797;SDS011;7490;63.708;20.368;2023-10-31T04:54:00;1.00;;;1.00;;
14797;SDS011;7490;63.708;20.368;2023-10-31T04:56:25;1.00;;;1.00;;
14797;SDS011;7490;63.708;20.368;2023-10-31T04:58:51;0.90;;;0.90;;
14797;SDS011;7490;63.708;20.368;2023-10-31T05:01:17;1.00;;;1.00;;
14797;SDS011;7490;63.708;20.368;2023-10-31T05:03:42;1.07;;;1.00;;
14797;SDS011;7490;63.708;20.368;2023-10-31T05:06:08;0.90;;;0.90;;
14797;SDS011;7490;63.708;20.368;2023-10-31T05:08:34;1.20;;;1.10;;
14797;SDS011;7490;63.708;20.368;2023-10-31T05:10:59;1.00;;;0.90;;
14797;SDS011;7490;63.708;20.368;2023-10-31T05:13:25;1.13;;;1.00;;
14797;SDS011;7490;63.708;20.368;2023-10-31T05:15:51;1.13;;;1.10;;
14797;SDS011;7490;63.708;20.368;2023-10-31T05:18:17;1.00;;;1.00;;
14797;SDS011;7490;63.708;20.368;2023-10-31T05:20:43;1.17;;;1.15;;
14797;SDS011;7490;63.708;20.368;2023-10-31T05:23:08;1.00;;;1.00;;
14797;SDS011;7490;63.708;20.368;2023-10-31T05:25:34;1.20;;;1.10;;
14797;SDS011;7490;63.708;20.368;2023-10-31T05:28:00;1.20;;;1.10;;
14797;SDS011;7490;63.708;20.368;2023-10-31T05:30:26;1.30;;;1.30;;
14797;SDS011;7490;63.708;20.368;2023-10-31T05:32:52;3.90;;;1.53;;
14797;SDS011;7490;63.708;20.368;2023-10-31T05:35:18;1.23;;;1.20;;
14797;SDS011;7490;63.708;20.368;2023-10-31T05:37:45;0.90;;;0.90;;
14797;SDS011;7490;63.708;20.368;2023-10-31T05:40:11;1.20;;;1.10;;
14797;SDS011;7490;63.708;20.368;2023-10-31T05:42:38;1.60;;;1.50;;
14797;SDS011;7490;63.708;20.368;2023-10-31T05:45:04;1.20;;;1.20;;
14797;SDS011;7490;63.708;20.368;2023-10-31T05:47:30;1.10;;;1.10;;
14797;SDS011;7490;63.708;20.368;2023-10-31T05:49:55;1.17;;;0.90;;
14797;SDS011;7490;63.708;20.368;2023-10-31T05:52:22;1.30;;;1.20;;
14797;SDS011;7490;63.708;20.368;2023-10-31T05:54:48;1.13;;;1.13;;
14797;SDS011;7490;63.708;20.368;2023-10-31T05:57:13;1.43;;;1.33;;
14797;SDS011;7490;63.708;20.368;2023-10-31T05:59:39;1.93;;;1.30;;
14797;SDS011;7490;63.708;20.368;2023-10-31T06:02:05;1.43;;;1.30;;
14797;SDS011;7490;63.708;20.368;2023-10-31T06:04:30;2.30;;;2.20;;
14797;SDS011;7490;63.708;20.368;2023-10-31T06:06:56;2.20;;;2.00;;
14797;SDS011;7490;63.708;20.368;2023-10-31T06:09:22;1.67;;;1.47;;
14797;SDS011;7490;63.708;20.368;2023-10-31T06:11:47;1.50;;;1.40;;
14797;SDS011;7490;63.708;20.368;2023-10-31T06:14:13;3.83;;;2.23;;
14797;SDS011;7490;63.708;20.368;2023-10-31T06:16:39;2.60;;;2.40;;
14797;SDS011;7490;63.708;20.368;2023-10-31T06:19:06;10.00;;;8.45;;
14797;SDS011;7490;63.708;20.368;2023-10-31T06:21:32;2.73;;;2.53;;
14797;SDS011;7490;63.708;20.368;2023-10-31T06:23:58;4.23;;;2.10;;
14797;SDS011;7490;63.708;20.368;2023-10-31T06:26:23;1.83;;;1.70;;
14797;SDS011;7490;63.708;20.368;2023-10-31T06:28:49;2.43;;;1.57;;
14797;SDS011;7490;63.708;20.368;2023-10-31T06:31:14;2.40;;;2.30;;
14797;SDS011;7490;63.708;20.368;2023-10-31T06:33:40;2.43;;;1.57;;
14797;SDS011;7490;63.708;20.368;2023-10-31T06:36:06;1.60;;;1.50;;
14797;SDS011;7490;63.708;20.368;2023-10-31T06:38:32;1.90;;;1.80;;
14797;SDS011;7490;63.708;20.368;2023-10-31T06:40:58;2.07;;;1.97;;
14797;SDS011;7490;63.708;20.368;2023-10-31T06:43:24;2.63;;;2.43;;
14797;SDS011;7490;63.708;20.368;2023-10-31T06:45:50;1.93;;;1.83;;
14797;SDS011;7490;63.708;20.368;2023-10-31T06:48:15;2.97;;;2.43;;
14797;SDS011;7490;63.708;20.368;2023-10-31T06:50:41;3.90;;;2.60;;
14797;SDS011;7490;63.708;20.368;2023-10-31T06:53:07;3.03;;;2.83;;
14797;SDS011;7490;63.708;20.368;2023-10-31T06:55:32;3.00;;;1.90;;
14797;SDS011;7490;63.708;20.368;2023-10-31T06:57:59;2.47;;;2.28;;
14797;SDS011;7490;63.708;20.368;2023-10-31T07:00:24;3.30;;;2.47;;
14797;SDS011;7490;63.708;20.368;2023-10-31T07:02:50;2.53;;;2.27;;
14797;SDS011;7490;63.708;20.368;2023-10-31T07:05:15;5.60;;;3.50;;
14797;SDS011;7490;63.708;20.368;2023-10-31T07:07:41;2.90;;;2.67;;
14797;SDS011;7490;63.708;20.368;2023-10-31T07:10:07;3.17;;;2.87;;
14797;SDS011;7490;63.708;20.368;2023-10-31T07:12:33;2.93;;;2.30;;
14797;SDS011;7490;63.708;20.368;2023-10-31T07:14:58;2.30;;;1.93;;
14797;SDS011;7490;63.708;20.368;2023-10-31T07:17:25;2.53;;;2.33;;
14797;SDS011;7490;63.708;20.368;2023-10-31T07:19:51;3.08;;;2.38;;
14797;SDS011;7490;63.708;20.368;2023-10-31T07:22:16;2.83;;;2.40;;
14797;SDS011;7490;63.708;20.368;2023-10-31T07:24:42;3.10;;;2.10;;
14797;SDS011;7490;63.708;20.368;2023-10-31T07:27:09;4.45;;;2.30;;
14797;SDS011;7490;63.708;20.368;2023-10-31T07:29:34;2.00;;;1.63;;
14797;SDS011;7490;63.708;20.368;2023-10-31T07:32:03;2.40;;;1.70;;
14797;SDS011;7490;63.708;20.368;2023-10-31T07:34:29;2.30;;;2.10;;
14797;SDS011;7490;63.708;20.368;2023-10-31T07:36:54;1.90;;;1.80;;
14797;SDS011;7490;63.708;20.368;2023-10-31T07:39:21;1.85;;;1.75;;
14797;SDS011;7490;63.708;20.368;2023-10-31T07:41:47;2.63;;;2.38;;
14797;SDS011;7490;63.708;20.368;2023-10-31T07:44:13;2.80;;;2.40;;
14797;SDS011;7490;63.708;20.368;2023-10-31T07:46:39;3.43;;;1.93;;
14797;SDS011;7490;63.708;20.368;2023-10-31T07:49:04;2.47;;;1.97;;
14797;SDS011;7490;63.708;20.368;2023-10-31T07:51:31;2.10;;;1.90;;
14797;SDS011;7490;63.708;20.368;2023-10-31T07:53:56;3.00;;;2.20;;
14797;SDS011;7490;63.708;20.368;2023-10-31T07:56:23;3.20;;;2.20;;
14797;SDS011;7490;63.708;20.368;2023-10-31T07:58:50;2.58;;;2.20;;
14797;SDS011;7490;63.708;20.368;2023-10-31T08:01:17;2.45;;;2.25;;
14797;SDS011;7490;63.708;20.368;2023-10-31T08:03:43;3.88;;;2.03;;
14797;SDS011;7490;63.708;20.368;2023-10-31T08:06:10;3.87;;;2.40;;
14797;SDS011;7490;63.708;20.368;2023-10-31T08:08:36;2.50;;;2.30;;
14797;SDS011;7490;63.708;20.368;2023-10-31T08:11:02;3.30;;;2.60;;
14797;SDS011;7490;63.708;20.368;2023-10-31T08:13:28;2.38;;;2.17;;
14797;SDS011;7490;63.708;20.368;2023-10-31T08:15:55;4.13;;;2.45;;
14797;SDS011;7490;63.708;20.368;2023-10-31T08:18:21;2.23;;;2.03;;
14797;SDS011;7490;63.708;20.368;2023-10-31T08:20:48;2.30;;;2.10;;
14797;SDS011;7490;63.708;20.368;2023-10-31T08:23:15;2.15;;;2.05;;
14797;SDS011;7490;63.708;20.368;2023-10-31T08:25:42;2.42;;;2.22;;
14797;SDS011;7490;63.708;20.368;2023-10-31T08:28:07;2.33;;;2.23;;
14797;SDS011;7490;63.708;20.368;2023-10-31T08:30:33;2.20;;;2.00;;
14797;SDS011;7490;63.708;20.368;2023-10-31T08:32:59;2.80;;;2.40;;
14797;SDS011;7490;63.708;20.368;2023-10-31T08:35:24;4.13;;;2.30;;
14797;SDS011;7490;63.708;20.368;2023-10-31T08:37:50;2.73;;;2.40;;
14797;SDS011;7490;63.708;20.368;2023-10-31T08:40:16;2.97;;;2.63;;
14797;SDS011;7490;63.708;20.368;2023-10-31T08:42:41;2.60;;;2.40;;
14797;SDS011;7490;63.708;20.368;2023-10-31T08:45:08;3.45;;;2.70;;
14797;SDS011;7490;63.708;20.368;2023-10-31T08:47:34;2.70;;;2.50;;
14797;SDS011;7490;63.708;20.368;2023-10-31T08:50:00;2.97;;;2.57;;
14797;SDS011;7490;63.708;20.368;2023-10-31T08:52:25;4.60;;;3.03;;
14797;SDS011;7490;63.708;20.368;2023-10-31T08:54:51;3.07;;;2.77;;
14797;SDS011;7490;63.708;20.368;2023-10-31T08:57:16;3.70;;;2.77;;
14797;SDS011;7490;63.708;20.368;2023-10-31T08:59:42;3.13;;;2.30;;
14797;SDS011;7490;63.708;20.368;2023-10-31T09:02:08;3.30;;;2.70;;
14797;SDS011;7490;63.708;20.368;2023-10-31T09:04:34;3.55;;;2.83;;
14797;SDS011;7490;63.708;20.368;2023-10-31T09:07:00;3.17;;;2.87;;
14797;SDS011;7490;63.708;20.368;2023-10-31T09:09:26;3.20;;;2.43;;
14797;SDS011;7490;63.708;20.368;2023-10-31T09:11:51;2.70;;;2.47;;
14797;SDS011;7490;63.708;20.368;2023-10-31T09:14:17;3.43;;;2.63;;
14797;SDS011;7490;63.708;20.368;2023-10-31T09:16:43;6.57;;;3.07;;
14797;SDS011;7490;63.708;20.368;2023-10-31T09:19:08;3.00;;;2.37;;
14797;SDS011;7490;63.708;20.368;2023-10-31T09:21:34;4.13;;;2.77;;
14797;SDS011;7490;63.708;20.368;2023-10-31T09:24:00;2.97;;;2.40;;
14797;SDS011;7490;63.708;20.368;2023-10-31T09:26:27;3.00;;;2.70;;
14797;SDS011;7490;63.708;20.368;2023-10-31T09:28:53;3.83;;;2.70;;
14797;SDS011;7490;63.708;20.368;2023-10-31T09:31:20;3.05;;;2.72;;
14797;SDS011;7490;63.708;20.368;2023-10-31T09:33:46;3.50;;;2.60;;
14797;SDS011;7490;63.708;20.368;2023-10-31T09:36:12;2.90;;;2.53;;
14797;SDS011;7490;63.708;20.368;2023-10-31T09:38:39;3.57;;;2.60;;
14797;SDS011;7490;63.708;20.368;2023-10-31T09:41:05;3.40;;;3.10;;
14797;SDS011;7490;63.708;20.368;2023-10-31T09:43:31;3.30;;;2.73;;
14797;SDS011;7490;63.708;20.368;2023-10-31T09:45:57;3.60;;;2.90;;
14797;SDS011;7490;63.708;20.368;2023-10-31T09:48:25;4.27;;;3.10;;
14797;SDS011;7490;63.708;20.368;2023-10-31T09:50:51;4.13;;;3.20;;
14797;SDS011;7490;63.708;20.368;2023-10-31T09:53:18;4.00;;;3.17;;
14797;SDS011;7490;63.708;20.368;2023-10-31T09:55:45;5.27;;;3.53;;
14797;SDS011;7490;63.708;20.368;2023-10-31T09:58:12;4.07;;;3.00;;
14797;SDS011;7490;63.708;20.368;2023-10-31T10:00:38;5.03;;;3.20;;
14797;SDS011;7490;63.708;20.368;2023-10-31T10:03:06;5.17;;;3.33;;
14797;SDS011;7490;63.708;20.368;2023-10-31T10:05:35;3.70;;;3.20;;
14797;SDS011;7490;63.708;20.368;2023-10-31T10:08:06;3.97;;;3.40;;
14797;SDS011;7490;63.708;20.368;2023-10-31T10:10:33;4.63;;;3.63;;
14797;SDS011;7490;63.708;20.368;2023-10-31T10:12:59;3.43;;;3.13;;
14797;SDS011;7490;63.708;20.368;2023-10-31T10:15:27;3.67;;;3.20;;
14797;SDS011;7490;63.708;20.368;2023-10-31T10:17:54;4.43;;;3.20;;
14797;SDS011;7490;63.708;20.368;2023-10-31T10:20:20;6.10;;;3.43;;
14797;SDS011;7490;63.708;20.368;2023-10-31T10:22:45;4.90;;;3.30;;
14797;SDS011;7490;63.708;20.368;2023-10-31T10:25:13;4.20;;;3.00;;
14797;SDS011;7490;63.708;20.368;2023-10-31T10:27:45;4.20;;;3.30;;
14797;SDS011;7490;63.708;20.368;2023-10-31T10:30:12;3.97;;;3.10;;
14797;SDS011;7490;63.708;20.368;2023-10-31T10:32:38;4.47;;;3.13;;
14797;SDS011;7490;63.708;20.368;2023-10-31T10:35:04;3.80;;;3.20;;
14797;SDS011;7490;63.708;20.368;2023-10-31T10:37:31;3.63;;;3.30;;
14797;SDS011;7490;63.708;20.368;2023-10-31T10:39:57;4.23;;;2.90;;
14797;SDS011;7490;63.708;20.368;2023-10-31T10:42:31;4.50;;;2.97;;
14797;SDS011;7490;63.708;20.368;2023-10-31T10:45:03;2.60;;;2.40;;
14797;SDS011;7490;63.708;20.368;2023-10-31T10:47:33;3.47;;;2.83;;
14797;SDS011;7490;63.708;20.368;2023-10-31T10:50:00;3.67;;;2.90;;
14797;SDS011;7490;63.708;20.368;2023-10-31T10:52:28;3.03;;;2.73;;
14797;SDS011;7490;63.708;20.368;2023-10-31T10:55:08;2.93;;;2.60;;
14797;SDS011;7490;63.708;20.368;2023-10-31T10:57:42;4.73;;;3.10;;
14797;SDS011;7490;63.708;20.368;2023-10-31T11:00:15;4.23;;;3.03;;
14797;SDS011;7490;63.708;20.368;2023-10-31T11:02:41;2.73;;;2.47;;
14797;SDS011;7490;63.708;20.368;2023-10-31T11:05:08;3.00;;;2.60;;
14797;SDS011;7490;63.708;20.368;2023-10-31T11:07:35;3.23;;;2.80;;
14797;SDS011;7490;63.708;20.368;2023-10-31T11:10:02;2.73;;;2.47;;
14797;SDS011;7490;63.708;20.368;2023-10-31T11:12:30;2.83;;;2.50;;
14797;SDS011;7490;63.708;20.368;2023-10-31T11:14:57;2.70;;;2.50;;
14797;SDS011;7490;63.708;20.368;2023-10-31T11:17:27;2.93;;;2.60;;
14797;SDS011;7490;63.708;20.368;2023-10-31T11:19:55;2.87;;;2.67;;
14797;SDS011;7490;63.708;20.368;2023-10-31T11:22:21;3.73;;;2.60;;
14797;SDS011;7490;63.708;20.368;2023-10-31T11:24:48;2.80;;;2.47;;
14797;SDS011;7490;63.708;20.368;2023-10-31T11:27:15;2.47;;;2.27;;
14797;SDS011;7490;63.708;20.368;2023-10-31T11:29:42;2.90;;;2.50;;
14797;SDS011;7490;63.708;20.368;2023-10-31T11:32:09;2.83;;;2.60;;
14797;SDS011;7490;63.708;20.368;2023-10-31T11:34:36;2.90;;;2.63;;
14797;SDS011;7490;63.708;20.368;2023-10-31T11:42:43;2.40;;;2.20;;
14797;SDS011;7490;63.708;20.368;2023-10-31T11:45:12;2.37;;;2.17;;
14797;SDS011;7490;63.708;20.368;2023-10-31T11:47:47;2.90;;;2.17;;
14797;SDS011;7490;63.708;20.368;2023-10-31T11:50:14;2.80;;;2.40;;
14797;SDS011;7490;63.708;20.368;2023-10-31T11:52:40;2.37;;;2.17;;
14797;SDS011;7490;63.708;20.368;2023-10-31T11:55:09;3.53;;;2.33;;
14797;SDS011;7490;63.708;20.368;2023-10-31T11:57:35;2.33;;;2.13;;
14797;SDS011;7490;63.708;20.368;2023-10-31T12:00:05;2.30;;;2.10;;
14797;SDS011;7490;63.708;20.368;2023-10-31T12:02:32;2.20;;;2.00;;
14797;SDS011;7490;63.708;20.368;2023-10-31T12:05:10;2.40;;;2.20;;
14797;SDS011;7490;63.708;20.368;2023-10-31T12:07:56;2.60;;;2.40;;
14797;SDS011;7490;63.708;20.368;2023-10-31T12:10:23;2.30;;;2.10;;
14797;SDS011;7490;63.708;20.368;2023-10-31T12:12:58;2.30;;;2.10;;
14797;SDS011;7490;63.708;20.368;2023-10-31T12:15:24;3.47;;;2.47;;
14797;SDS011;7490;63.708;20.368;2023-10-31T12:17:50;2.50;;;2.30;;
14797;SDS011;7490;63.708;20.368;2023-10-31T12:20:16;2.20;;;2.00;;
14797;SDS011;7490;63.708;20.368;2023-10-31T12:22:42;3.90;;;2.43;;
14797;SDS011;7490;63.708;20.368;2023-10-31T12:25:09;2.23;;;2.07;;
14797;SDS011;7490;63.708;20.368;2023-10-31T12:30:11;2.37;;;2.17;;
14797;SDS011;7490;63.708;20.368;2023-10-31T12:32:41;2.30;;;2.10;;
14797;SDS011;7490;63.708;20.368;2023-10-31T12:35:11;2.00;;;1.90;;
14797;SDS011;7490;63.708;20.368;2023-10-31T12:37:44;1.80;;;1.70;;
14797;SDS011;7490;63.708;20.368;2023-10-31T12:40:16;2.30;;;2.10;;
14797;SDS011;7490;63.708;20.368;2023-10-31T12:42:43;2.10;;;1.90;;
14797;SDS011;7490;63.708;20.368;2023-10-31T12:45:10;2.53;;;2.03;;
14797;SDS011;7490;63.708;20.368;2023-10-31T12:47:36;2.10;;;2.00;;
14797;SDS011;7490;63.708;20.368;2023-10-31T12:50:15;2.10;;;1.90;;
14797;SDS011;7490;63.708;20.368;2023-10-31T12:55:16;1.80;;;1.70;;
14797;SDS011;7490;63.708;20.368;2023-10-31T12:57:46;2.20;;;2.00;;
14797;SDS011;7490;63.708;20.368;2023-10-31T13:00:13;1.90;;;1.80;;
14797;SDS011;7490;63.708;20.368;2023-10-31T13:02:41;2.03;;;1.63;;
14797;SDS011;7490;63.708;20.368;2023-10-31T13:05:14;2.10;;;1.90;;
14797;SDS011;7490;63.708;20.368;2023-10-31T13:07:49;3.47;;;1.60;;
14797;SDS011;7490;63.708;20.368;2023-10-31T13:10:21;1.60;;;1.50;;
14797;SDS011;7490;63.708;20.368;2023-10-31T13:12:50;1.90;;;1.80;;
14797;SDS011;7490;63.708;20.368;2023-10-31T13:15:17;2.93;;;1.47;;
14797;SDS011;7490;63.708;20.368;2023-10-31T13:17:50;1.40;;;1.30;;
14797;SDS011;7490;63.708;20.368;2023-10-31T13:20:17;3.53;;;2.00;;
14797;SDS011;7490;63.708;20.368;2023-10-31T13:22:44;2.33;;;1.40;;
14797;SDS011;7490;63.708;20.368;2023-10-31T13:25:11;1.30;;;1.20;;
14797;SDS011;7490;63.708;20.368;2023-10-31T13:27:39;2.13;;;1.30;;
14797;SDS011;7490;63.708;20.368;2023-10-31T13:30:08;1.50;;;1.40;;
14797;SDS011;7490;63.708;20.368;2023-10-31T13:32:38;1.60;;;1.50;;
14797;SDS011;7490;63.708;20.368;2023-10-31T13:35:05;1.60;;;1.33;;
14797;SDS011;7490;63.708;20.368;2023-10-31T13:37:31;1.50;;;1.40;;
14797;SDS011;7490;63.708;20.368;2023-10-31T13:39:57;2.97;;;1.40;;
14797;SDS011;7490;63.708;20.368;2023-10-31T13:42:22;1.50;;;1.40;;
14797;SDS011;7490;63.708;20.368;2023-10-31T13:44:48;3.07;;;1.27;;
14797;SDS011;7490;63.708;20.368;2023-10-31T13:47:14;1.57;;;1.43;;
14797;SDS011;7490;63.708;20.368;2023-10-31T13:49:39;1.20;;;1.10;;
14797;SDS011;7490;63.708;20.368;2023-10-31T13:52:05;1.07;;;1.00;;
14797;SDS011;7490;63.708;20.368;2023-10-31T13:54:34;1.60;;;1.20;;
14797;SDS011;7490;63.708;20.368;2023-10-31T13:56:59;1.17;;;1.07;;
14797;SDS011;7490;63.708;20.368;2023-10-31T13:59:26;2.47;;;1.40;;
14797;SDS011;7490;63.708;20.368;2023-10-31T14:01:51;1.33;;;1.20;;
14797;SDS011;7490;63.708;20.368;2023-10-31T14:04:18;0.93;;;0.90;;
14797;SDS011;7490;63.708;20.368;2023-10-31T14:06:44;1.40;;;1.10;;
14797;SDS011;7490;63.708;20.368;2023-10-31T14:09:10;1.37;;;0.90;;
14797;SDS011;7490;63.708;20.368;2023-10-31T14:11:37;1.73;;;0.90;;
14797;SDS011;7490;63.708;20.368;2023-10-31T14:14:04;0.90;;;0.90;;
14797;SDS011;7490;63.708;20.368;2023-10-31T14:16:34;1.20;;;1.00;;
14797;SDS011;7490;63.708;20.368;2023-10-31T14:19:01;1.00;;;1.00;;
14797;SDS011;7490;63.708;20.368;2023-10-31T14:21:29;1.03;;;1.00;;
14797;SDS011;7490;63.708;20.368;2023-10-31T14:23:55;0.80;;;0.80;;
14797;SDS011;7490;63.708;20.368;2023-10-31T14:26:21;1.23;;;1.00;;
14797;SDS011;7490;63.708;20.368;2023-10-31T14:28:48;0.97;;;0.97;;
14797;SDS011;7490;63.708;20.368;2023-10-31T14:31:14;0.80;;;0.80;;
14797;SDS011;7490;63.708;20.368;2023-10-31T14:33:40;1.33;;;0.80;;
14797;SDS011;7490;63.708;20.368;2023-10-31T14:36:06;0.77;;;0.77;;
14797;SDS011;7490;63.708;20.368;2023-10-31T14:38:35;1.00;;;1.00;;
14797;SDS011;7490;63.708;20.368;2023-10-31T14:41:01;0.80;;;0.80;;
14797;SDS011;7490;63.708;20.368;2023-10-31T14:43:26;0.80;;;0.77;;
14797;SDS011;7490;63.708;20.368;2023-10-31T14:45:52;0.80;;;0.80;;
14797;SDS011;7490;63.708;20.368;2023-10-31T14:48:19;0.60;;;0.60;;
14797;SDS011;7490;63.708;20.368;2023-10-31T14:50:49;0.60;;;0.60;;
14797;SDS011;7490;63.708;20.368;2023-10-31T14:53:15;0.77;;;0.77;;
14797;SDS011;7490;63.708;20.368;2023-10-31T14:55:41;0.60;;;0.60;;